createdAt,value
2018-12-17T11:36:32.953Z,32.17
2018-12-17T11:39:00.847Z,34.50
2018-12-17T11:41:28.735Z,37.13
2018-12-17T11:43:56.659Z,49.00
2018-12-17T11:46:24.594Z,40.47
2018-12-17T11:48:52.540Z,47.30
2018-12-17T11:51:20.585Z,52.70
2018-12-17T11:53:48.476Z,52.37
2018-12-17T11:56:16.375Z,56.43
2018-12-17T11:58:44.284Z,46.53
2018-12-17T12:01:12.627Z,50.40
2018-12-17T12:03:42.336Z,54.73
2018-12-17T12:06:13.931Z,55.40
2018-12-17T12:08:40.161Z,54.80
2018-12-17T12:11:08.044Z,51.87
2018-12-17T12:13:36.013Z,58.03
2018-12-17T12:16:03.918Z,54.40
2018-12-17T12:18:31.803Z,55.20
2018-12-17T12:20:59.713Z,56.20
2018-12-17T12:23:27.618Z,52.27
2018-12-17T12:25:55.513Z,54.30
2018-12-17T12:28:23.400Z,54.83
2018-12-17T12:30:51.392Z,53.87
2018-12-17T12:33:19.280Z,57.07
2018-12-17T12:35:47.232Z,51.47
2018-12-17T12:38:15.117Z,51.13
2018-12-17T12:40:43.033Z,56.93
2018-12-17T12:43:10.860Z,54.60
2018-12-17T12:45:38.878Z,56.30
2018-12-17T12:48:06.780Z,54.17
2018-12-17T12:50:34.669Z,54.47
2018-12-17T12:53:02.554Z,54.10
2018-12-17T12:55:30.476Z,58.87
2018-12-17T12:58:03.663Z,57.87
2018-12-17T13:00:28.272Z,58.33
2018-12-17T13:02:56.159Z,56.00
2018-12-17T13:05:24.213Z,56.70
2018-12-17T13:07:52.114Z,53.60
2018-12-17T13:10:20.024Z,54.40
2018-12-17T13:12:47.920Z,57.60
2018-12-17T13:15:15.903Z,53.70
2018-12-17T13:17:43.797Z,56.30
2018-12-17T13:20:11.708Z,53.90
2018-12-17T13:22:39.629Z,57.37
2018-12-17T13:25:12.880Z,56.23
2018-12-17T13:27:40.767Z,53.37
2018-12-17T13:30:09.070Z,61.93
2018-12-17T13:32:36.953Z,54.70
2018-12-17T13:35:05.362Z,55.47
2018-12-17T13:37:33.279Z,51.67
2018-12-17T13:40:01.176Z,55.43
2018-12-17T13:42:29.057Z,55.37
2018-12-17T13:44:57.099Z,55.07
2018-12-17T13:47:25.007Z,52.40
2018-12-17T13:49:52.895Z,59.03
2018-12-17T13:52:26.475Z,54.53
2018-12-17T13:54:54.391Z,51.30
2018-12-17T13:57:22.288Z,52.37
2018-12-17T13:59:50.165Z,48.03
2018-12-17T14:02:18.079Z,48.77
2018-12-17T14:04:45.955Z,53.10
2018-12-17T14:07:13.855Z,52.80
2018-12-17T14:09:47.255Z,49.80
2018-12-17T14:12:15.163Z,50.40
2018-12-17T14:14:43.068Z,55.63
2018-12-17T14:17:16.469Z,53.80
2018-12-17T14:19:48.725Z,57.10
2018-12-17T14:22:16.731Z,50.97
2018-12-17T14:24:44.573Z,50.97
2018-12-17T14:27:12.484Z,50.70
2018-12-17T14:29:40.375Z,49.90
2018-12-17T14:32:08.304Z,48.70
2018-12-17T14:34:36.203Z,48.93
2018-12-17T14:37:04.116Z,51.20
2018-12-17T14:39:32.012Z,50.93
2018-12-17T14:41:59.915Z,51.57
2018-12-17T14:44:34.284Z,52.10
2018-12-17T14:47:02.234Z,51.47
2018-12-17T14:49:30.235Z,51.03
2018-12-17T14:51:58.138Z,53.57
2018-12-17T14:54:26.047Z,53.03
2018-12-17T14:56:54.047Z,57.83
2018-12-17T14:59:21.964Z,55.60
2018-12-17T15:01:49.884Z,58.07
2018-12-17T15:04:17.784Z,55.80
2018-12-17T15:06:45.700Z,53.73
2018-12-17T15:09:13.596Z,53.90
2018-12-17T15:11:41.532Z,53.50
2018-12-17T15:14:09.453Z,54.27
2018-12-17T15:16:37.349Z,53.50
2018-12-17T15:19:05.256Z,53.30
2018-12-17T15:21:33.152Z,53.07
2018-12-17T15:24:01.068Z,52.40
2018-12-17T15:26:29.015Z,52.97
2018-12-17T15:28:56.998Z,56.00
2018-12-17T15:31:25.003Z,55.07
2018-12-17T15:33:52.906Z,54.23
2018-12-17T15:36:20.800Z,52.30
2018-12-17T15:38:48.702Z,54.57
2018-12-17T15:41:16.640Z,55.77
2018-12-17T15:43:44.532Z,54.43
2018-12-17T15:46:12.440Z,51.20
2018-12-17T15:48:40.361Z,51.60
2018-12-17T15:51:08.247Z,51.07
2018-12-17T15:53:36.200Z,48.27
2018-12-17T15:56:04.108Z,53.70
2018-12-17T15:58:32.003Z,55.57
2018-12-17T16:00:59.915Z,54.30
2018-12-17T16:03:27.828Z,51.37
2018-12-17T16:05:55.768Z,50.07
2018-12-17T16:08:23.717Z,50.67
2018-12-17T16:10:51.624Z,50.40
2018-12-17T16:13:19.520Z,46.80
2018-12-17T16:15:47.414Z,50.57
2018-12-17T16:18:15.351Z,48.27
2018-12-17T16:20:44.780Z,49.60
2018-12-17T16:23:13.041Z,50.03
2018-12-17T16:25:41.536Z,49.33
2018-12-17T16:28:09.710Z,50.53
2018-12-17T16:30:37.754Z,59.10
2018-12-17T16:33:05.644Z,54.57
2018-12-17T16:35:33.560Z,73.33
2018-12-17T16:38:01.471Z,53.33
2018-12-17T16:40:29.600Z,52.70
2018-12-17T16:42:57.487Z,50.30
2018-12-17T16:45:25.388Z,50.80
2018-12-17T16:47:53.313Z,52.70
2018-12-17T16:50:21.232Z,49.80
2018-12-17T16:52:49.121Z,49.77
2018-12-17T16:55:17.021Z,49.27
2018-12-17T16:57:45.001Z,49.20
